createdAt,value
2023-05-03T00:01:34.506Z,268.27
2023-05-03T00:04:02.185Z,280.80
2023-05-03T00:06:30.256Z,277.60
2023-05-03T00:08:59.226Z,273.83
2023-05-03T00:11:27.356Z,277.57
2023-05-03T00:13:55.042Z,279.90
2023-05-03T00:16:23.472Z,255.80
2023-05-03T00:18:51.207Z,261.07
2023-05-03T00:21:19.196Z,254.77
2023-05-03T00:23:46.825Z,261.43
2023-05-03T00:26:16.370Z,272.10
2023-05-03T00:28:44.188Z,269.53
2023-05-03T00:31:12.492Z,274.97
2023-05-03T00:33:40.674Z,254.37
2023-05-03T00:36:09.920Z,264.10
2023-05-03T00:38:38.568Z,271.97
2023-05-03T00:41:07.109Z,245.40
2023-05-03T00:43:38.301Z,266.17
2023-05-03T00:46:16.104Z,254.93
2023-05-03T00:48:46.122Z,256.97
2023-05-03T00:51:16.270Z,239.53
2023-05-03T00:53:44.293Z,236.63
2023-05-03T00:56:12.881Z,264.97
2023-05-03T00:58:42.003Z,265.57
2023-05-03T01:01:10.308Z,288.83
2023-05-03T01:03:42.211Z,256.23
2023-05-03T01:06:19.202Z,252.10
2023-05-03T01:08:53.217Z,260.83
2023-05-03T01:11:25.417Z,247.30
2023-05-03T01:14:00.725Z,244.47
2023-05-03T01:16:36.498Z,241.20
2023-05-03T01:19:08.413Z,259.33
2023-05-03T01:21:38.820Z,259.90
2023-05-03T01:24:12.422Z,250.60
2023-05-03T01:26:42.062Z,245.80
2023-05-03T01:29:09.737Z,253.23
2023-05-03T01:31:44.789Z,252.47
2023-05-03T01:34:22.937Z,252.77
2023-05-03T01:36:51.913Z,254.73
2023-05-03T01:39:23.708Z,269.47
2023-05-03T01:41:54.229Z,246.27
2023-05-03T01:44:23.793Z,265.23
2023-05-03T01:46:51.481Z,233.70
2023-05-03T01:49:19.423Z,243.37
2023-05-03T01:51:47.075Z,240.47
2023-05-03T01:54:15.077Z,247.60
2023-05-03T01:56:42.812Z,264.10
2023-05-03T01:59:11.816Z,237.43
2023-05-03T02:01:40.395Z,262.53
2023-05-03T02:04:08.687Z,260.80
2023-05-03T02:06:37.424Z,236.40
2023-05-03T02:09:05.131Z,231.13
2023-05-03T02:11:32.751Z,270.43
2023-05-03T02:14:00.925Z,244.40
2023-05-03T02:16:30.059Z,247.83
2023-05-03T02:18:59.446Z,256.47
2023-05-03T02:21:33.290Z,245.40
2023-05-03T02:24:01.003Z,229.40
2023-05-03T02:26:30.098Z,264.13
2023-05-03T02:28:58.030Z,258.80
2023-05-03T02:31:28.193Z,204.00
2023-05-03T02:33:59.151Z,234.60
2023-05-03T02:36:27.665Z,232.40
2023-05-03T02:38:55.771Z,245.93
2023-05-03T02:41:23.402Z,241.97
2023-05-03T02:43:52.138Z,258.50
2023-05-03T02:46:19.759Z,239.03
2023-05-03T02:48:47.516Z,240.53
2023-05-03T02:51:16.492Z,228.20
2023-05-03T02:53:44.484Z,231.20
2023-05-03T02:56:12.161Z,218.23
2023-05-03T02:58:40.163Z,246.53
2023-05-03T03:01:08.416Z,233.80
2023-05-03T03:03:36.190Z,247.47
2023-05-03T03:06:04.147Z,269.53
2023-05-03T03:08:33.189Z,238.73
2023-05-03T03:11:04.586Z,225.77
2023-05-03T03:13:33.599Z,212.13
2023-05-03T03:16:03.581Z,237.03
2023-05-03T03:18:31.769Z,221.07
2023-05-03T03:20:59.526Z,235.73
2023-05-03T03:23:27.241Z,214.73
2023-05-03T03:25:56.652Z,223.77
2023-05-03T03:28:25.984Z,218.53
2023-05-03T03:30:54.725Z,224.70
2023-05-03T03:33:26.648Z,230.40
2023-05-03T03:35:59.461Z,206.07
2023-05-03T03:38:33.534Z,220.27
2023-05-03T03:41:06.841Z,229.07
2023-05-03T03:43:35.431Z,203.50
2023-05-03T03:46:08.924Z,212.50
2023-05-03T03:48:36.827Z,210.07
2023-05-03T03:51:04.659Z,227.90
2023-05-03T03:53:39.281Z,196.57
2023-05-03T03:56:09.003Z,203.57
2023-05-03T03:58:36.860Z,213.57
2023-05-03T04:01:07.268Z,210.33
2023-05-03T04:03:35.453Z,230.30
2023-05-03T04:06:03.178Z,204.83
2023-05-03T04:08:31.870Z,224.97
2023-05-03T04:10:59.730Z,209.13
2023-05-03T04:13:28.708Z,242.43
2023-05-03T04:15:57.942Z,201.87
2023-05-03T04:18:26.801Z,211.57
2023-05-03T04:20:56.786Z,193.57
2023-05-03T04:23:24.511Z,220.67
2023-05-03T04:25:52.554Z,203.87
2023-05-03T04:28:22.018Z,201.60
2023-05-03T04:30:53.441Z,210.00
2023-05-03T04:33:25.703Z,210.10
2023-05-03T04:35:55.332Z,220.50
2023-05-03T04:38:23.243Z,217.37
2023-05-03T04:40:51.671Z,233.63
2023-05-03T04:43:19.473Z,204.00
2023-05-03T04:45:48.583Z,210.73
2023-05-03T04:48:22.123Z,212.83
2023-05-03T04:50:49.779Z,199.83
2023-05-03T04:53:20.092Z,199.47
2023-05-03T04:55:54.229Z,206.03
2023-05-03T04:58:22.718Z,208.60
2023-05-03T05:00:51.055Z,215.43
2023-05-03T05:03:27.583Z,222.53
2023-05-03T05:05:55.265Z,211.20
2023-05-03T05:08:22.939Z,226.97
2023-05-03T05:10:55.958Z,208.80
2023-05-03T05:13:28.083Z,215.80
2023-05-03T05:15:55.986Z,230.73
2023-05-03T05:18:23.707Z,209.03
2023-05-03T05:20:54.588Z,226.60
2023-05-03T05:23:23.403Z,204.17
2023-05-03T05:25:53.927Z,202.53
2023-05-03T05:28:22.711Z,223.90
2023-05-03T05:30:50.630Z,217.27
2023-05-03T05:33:19.280Z,221.77
2023-05-03T05:35:49.573Z,211.47
2023-05-03T05:38:21.930Z,227.97
2023-05-03T05:40:51.841Z,221.07
2023-05-03T05:43:20.477Z,230.03
2023-05-03T05:45:48.541Z,224.70
2023-05-03T05:48:16.803Z,245.30
2023-05-03T05:50:45.754Z,245.93
2023-05-03T05:53:15.746Z,242.97
2023-05-03T05:55:51.709Z,219.83
2023-05-03T05:58:19.919Z,263.53
2023-05-03T06:00:51.993Z,255.30
2023-05-03T06:03:20.212Z,273.90
2023-05-03T06:05:50.681Z,278.73
2023-05-03T06:08:18.590Z,270.13
2023-05-03T06:10:46.213Z,285.07
2023-05-03T06:13:15.261Z,278.00
2023-05-03T06:15:43.781Z,285.57
2023-05-03T06:18:11.948Z,278.90
2023-05-03T06:20:39.616Z,291.53
2023-05-03T06:23:07.769Z,297.00
2023-05-03T06:25:38.067Z,301.10
2023-05-03T06:28:05.843Z,291.83
2023-05-03T06:30:37.576Z,329.77
2023-05-03T06:33:13.580Z,301.77
2023-05-03T06:35:43.753Z,302.20
2023-05-03T06:38:12.262Z,333.17
2023-05-03T06:40:41.247Z,317.70
2023-05-03T06:43:09.126Z,342.73
2023-05-03T06:45:45.140Z,323.23
2023-05-03T06:48:13.108Z,318.87
2023-05-03T06:50:41.243Z,331.77
2023-05-03T06:53:09.683Z,324.33
2023-05-03T06:55:37.267Z,337.37
2023-05-03T06:58:10.306Z,318.73
2023-05-03T07:00:39.096Z,339.90
2023-05-03T07:03:08.283Z,309.38
2023-05-03T07:05:36.662Z,322.40
2023-05-03T07:08:04.593Z,295.20
2023-05-03T07:10:55.166Z,308.95
2023-05-03T07:13:22.801Z,304.88
2023-05-03T07:15:51.460Z,302.88
2023-05-03T07:18:20.471Z,318.50
2023-05-03T07:20:48.744Z,306.88
2023-05-03T07:23:16.985Z,305.27
2023-05-03T07:25:45.634Z,284.33
2023-05-03T07:28:13.636Z,267.63
2023-05-03T07:30:41.352Z,244.40
2023-05-03T07:33:09.421Z,246.32
2023-05-03T07:35:38.390Z,229.95
2023-05-03T07:38:06.515Z,203.45
2023-05-03T07:40:34.881Z,189.57
2023-05-03T07:43:03.149Z,185.90
2023-05-03T07:45:31.699Z,177.35
2023-05-03T07:47:59.530Z,186.70
2023-05-03T07:50:27.548Z,193.20
2023-05-03T07:52:56.524Z,181.15
2023-05-03T07:55:25.203Z,197.52
2023-05-03T07:57:58.279Z,163.70
2023-05-03T08:00:26.265Z,164.27
2023-05-03T08:02:54.149Z,166.15
2023-05-03T08:05:23.606Z,166.50
2023-05-03T08:07:52.560Z,174.77
2023-05-03T08:10:22.249Z,194.88
2023-05-03T08:12:53.341Z,195.95
2023-05-03T08:15:20.947Z,184.73
2023-05-03T08:17:49.405Z,198.25
2023-05-03T08:20:17.007Z,203.27
2023-05-03T08:22:45.616Z,198.18
2023-05-03T08:25:13.283Z,193.65
2023-05-03T08:27:42.548Z,207.57
2023-05-03T08:30:10.893Z,200.88
2023-05-03T08:32:38.479Z,196.85
2023-05-03T08:35:07.312Z,202.60
2023-05-03T08:37:40.121Z,213.15
2023-05-03T08:40:10.011Z,208.55
2023-05-03T08:42:42.425Z,201.07
2023-05-03T08:45:12.847Z,203.18
2023-05-03T08:47:41.927Z,202.55
2023-05-03T08:50:11.456Z,206.77
2023-05-03T08:52:41.439Z,185.73
2023-05-03T08:55:10.770Z,213.93
2023-05-03T08:57:38.481Z,204.52
2023-05-03T09:00:10.828Z,218.98
2023-05-03T09:02:39.943Z,220.65
2023-05-03T09:05:35.963Z,204.82
2023-05-03T09:08:05.297Z,192.02
2023-05-03T09:10:33.986Z,219.23
2023-05-03T09:13:03.161Z,201.93
2023-05-03T09:15:32.406Z,211.32
2023-05-03T09:18:12.607Z,208.80
2023-05-03T09:20:41.834Z,206.73
2023-05-03T09:23:10.470Z,206.40
2023-05-03T09:25:43.185Z,207.68
2023-05-03T09:28:10.990Z,193.27
2023-05-03T09:30:40.347Z,183.27
2023-05-03T09:33:08.482Z,182.75
2023-05-03T09:35:36.130Z,186.48
2023-05-03T09:38:03.990Z,194.00
2023-05-03T09:40:31.733Z,213.73
2023-05-03T09:43:06.466Z,194.00
2023-05-03T09:45:34.335Z,216.50
2023-05-03T09:48:05.112Z,198.05
2023-05-03T09:50:33.847Z,197.88
2023-05-03T09:53:05.850Z,188.57
2023-05-03T09:55:34.658Z,197.23
2023-05-03T09:58:06.701Z,209.18
2023-05-03T10:00:38.377Z,201.73
2023-05-03T10:03:10.517Z,206.10
2023-05-03T10:05:45.729Z,196.18
2023-05-03T10:08:19.421Z,215.27
2023-05-03T10:10:51.054Z,208.95
2023-05-03T10:13:20.044Z,193.43
2023-05-03T10:15:49.933Z,213.70
2023-05-03T10:18:21.652Z,212.10
2023-05-03T10:20:54.732Z,215.95
2023-05-03T10:23:22.361Z,208.25
2023-05-03T10:26:15.118Z,219.10
2023-05-03T10:28:43.916Z,200.07
2023-05-03T10:31:46.544Z,215.77
2023-05-03T10:34:26.037Z,205.57
2023-05-03T10:36:54.257Z,210.05
2023-05-03T10:39:22.367Z,203.57
2023-05-03T10:42:00.348Z,210.45
2023-05-03T10:44:29.320Z,195.30
2023-05-03T10:46:57.014Z,197.77
2023-05-03T10:49:27.211Z,210.10
2023-05-03T10:51:56.079Z,209.85
2023-05-03T10:54:24.515Z,207.38
2023-05-03T10:56:54.426Z,218.65
2023-05-03T10:59:23.255Z,218.57
2023-05-03T11:01:53.375Z,215.27
2023-05-03T11:04:34.852Z,221.95
2023-05-03T11:07:02.914Z,222.90
2023-05-03T11:09:36.971Z,198.30
2023-05-03T11:12:05.979Z,215.70
2023-05-03T11:14:33.594Z,232.63
2023-05-03T11:17:01.923Z,225.73
2023-05-03T11:19:31.264Z,205.85
2023-05-03T11:21:58.971Z,225.75
2023-05-03T11:24:26.792Z,223.55
2023-05-03T11:26:54.473Z,216.55
2023-05-03T11:29:22.433Z,204.05
2023-05-03T11:31:51.207Z,196.65
2023-05-03T11:34:19.345Z,212.60
2023-05-03T11:36:49.576Z,207.73
2023-05-03T11:39:18.963Z,211.35
2023-05-03T11:42:03.213Z,226.15
2023-05-03T11:44:31.265Z,213.57
2023-05-03T11:46:59.662Z,209.02
2023-05-03T11:49:27.508Z,225.00
2023-05-03T11:51:56.817Z,224.00
2023-05-03T11:54:27.338Z,218.70
2023-05-03T11:56:57.505Z,214.98
2023-05-03T11:59:35.920Z,223.57
2023-05-03T12:02:04.229Z,218.75
2023-05-03T12:04:32.818Z,207.82
2023-05-03T12:07:03.411Z,208.50
2023-05-03T12:09:32.511Z,211.35
2023-05-03T12:12:02.405Z,225.80
2023-05-03T12:14:51.359Z,217.88
2023-05-03T12:17:36.879Z,207.98
2023-05-03T12:22:59.127Z,229.02
2023-05-03T12:25:29.189Z,225.88
2023-05-03T12:28:18.545Z,229.52
2023-05-03T12:30:48.789Z,229.45
2023-05-03T12:33:21.126Z,227.82
2023-05-03T12:35:53.452Z,215.43
2023-05-03T12:38:25.076Z,225.63
2023-05-03T12:40:54.825Z,213.57
2023-05-03T12:43:22.781Z,221.60
2023-05-03T12:46:02.067Z,221.07
2023-05-03T12:48:38.507Z,212.65
2023-05-03T12:51:19.151Z,215.70
2023-05-03T12:53:54.445Z,215.20
2023-05-03T12:56:24.781Z,232.75
2023-05-03T12:59:14.928Z,213.13
2023-05-03T13:06:44.862Z,233.70
2023-05-03T13:09:20.571Z,226.43
2023-05-03T13:11:50.974Z,205.98
2023-05-03T13:14:18.990Z,220.93
2023-05-03T13:16:46.822Z,227.07
2023-05-03T13:19:14.823Z,228.02
2023-05-03T13:21:42.606Z,221.10
2023-05-03T13:24:10.313Z,220.45
2023-05-03T13:26:39.816Z,228.25
2023-05-03T13:29:07.428Z,224.68
2023-05-03T13:31:35.559Z,221.27
2023-05-03T13:34:03.148Z,227.63
2023-05-03T13:36:33.559Z,230.63
2023-05-03T13:39:01.851Z,221.40
2023-05-03T13:41:29.605Z,236.13
2023-05-03T13:43:58.510Z,244.68
2023-05-03T13:46:26.244Z,236.63
2023-05-03T13:48:56.706Z,235.85
2023-05-03T13:51:25.601Z,233.80
2023-05-03T13:53:53.350Z,248.75
2023-05-03T13:56:21.862Z,240.98
2023-05-03T13:58:49.611Z,241.65
2023-05-03T14:01:19.295Z,259.75
2023-05-03T14:03:47.258Z,268.67
2023-05-03T14:06:15.188Z,261.45
2023-05-03T14:08:43.078Z,256.80
2023-05-03T14:11:13.874Z,261.02
2023-05-03T14:13:55.607Z,260.88
2023-05-03T14:18:58.388Z,264.48
2023-05-03T14:21:26.369Z,268.20
2023-05-03T14:23:55.854Z,271.65
2023-05-03T14:26:26.237Z,273.17
2023-05-03T14:28:53.997Z,270.95
2023-05-03T14:31:22.456Z,284.70
2023-05-03T14:33:51.986Z,275.30
2023-05-03T14:36:19.801Z,284.05
2023-05-03T14:38:47.820Z,277.23
2023-05-03T14:41:15.585Z,281.00
2023-05-03T14:43:43.396Z,278.10
2023-05-03T14:46:11.301Z,265.75
2023-05-03T14:48:39.263Z,281.85
2023-05-03T14:51:08.432Z,271.90
2023-05-03T14:53:36.797Z,276.55
2023-05-03T14:56:04.953Z,280.95
2023-05-03T14:58:33.485Z,281.42
2023-05-03T15:01:01.209Z,278.13
2023-05-03T15:03:29.066Z,265.95
2023-05-03T15:05:57.490Z,263.75
2023-05-03T15:08:27.506Z,267.27
2023-05-03T15:10:55.396Z,251.68
2023-05-03T15:13:24.213Z,259.83
2023-05-03T15:15:52.332Z,275.30
2023-05-03T15:18:20.355Z,244.43
2023-05-03T15:20:48.213Z,251.57
2023-05-03T15:23:15.947Z,243.57
2023-05-03T15:25:44.924Z,251.15
2023-05-03T15:28:12.994Z,236.88
2023-05-03T15:30:40.816Z,248.50
2023-05-03T15:33:11.079Z,249.32
2023-05-03T15:35:41.242Z,242.27
2023-05-03T15:38:09.858Z,239.60
2023-05-03T15:40:37.736Z,238.32
2023-05-03T15:43:06.911Z,249.98
2023-05-03T15:45:34.667Z,257.92
2023-05-03T15:48:02.968Z,239.43
2023-05-03T15:50:30.843Z,267.35
2023-05-03T15:52:58.791Z,252.68
2023-05-03T15:55:26.899Z,256.42
2023-05-03T15:57:57.075Z,239.27
2023-05-03T16:00:28.158Z,241.73
2023-05-03T16:02:57.261Z,235.82
2023-05-03T16:05:25.370Z,239.32
2023-05-03T16:07:53.163Z,242.63
2023-05-03T16:10:23.430Z,231.75
2023-05-03T16:12:52.481Z,211.43
2023-05-03T16:15:20.534Z,228.35
2023-05-03T16:17:49.979Z,241.82
2023-05-03T16:20:17.863Z,225.70
2023-05-03T16:22:47.946Z,228.27
2023-05-03T16:25:16.408Z,213.43
2023-05-03T16:27:44.707Z,225.93
2023-05-03T16:30:13.201Z,228.18
2023-05-03T16:32:41.639Z,219.50
2023-05-03T16:35:11.036Z,226.60
2023-05-03T16:37:38.788Z,230.90
2023-05-03T16:40:11.696Z,225.13
2023-05-03T16:42:40.146Z,212.25
2023-05-03T16:45:10.606Z,211.65
2023-05-03T16:47:38.872Z,208.07
2023-05-03T16:50:08.632Z,211.65
2023-05-03T16:52:40.698Z,218.00
2023-05-03T16:55:09.696Z,220.85
2023-05-03T16:57:37.805Z,214.65
2023-05-03T17:00:09.708Z,225.80
2023-05-03T17:02:38.202Z,212.88
2023-05-03T17:05:07.758Z,211.52
2023-05-03T17:07:36.966Z,208.13
2023-05-03T17:10:07.553Z,211.88
2023-05-03T17:12:35.974Z,192.45
2023-05-03T17:15:04.061Z,208.90
2023-05-03T17:17:32.632Z,203.40
2023-05-03T17:20:00.659Z,197.68
2023-05-03T17:22:28.824Z,199.82
2023-05-03T17:24:58.237Z,189.85
2023-05-03T17:27:27.901Z,207.90
2023-05-03T17:29:57.439Z,225.05
2023-05-03T17:32:25.940Z,203.20
2023-05-03T17:34:53.649Z,215.88
2023-05-03T17:37:23.670Z,216.75
2023-05-03T17:39:51.543Z,221.70
2023-05-03T17:42:20.890Z,225.75
2023-05-03T17:44:51.902Z,218.48
2023-05-03T17:47:21.117Z,231.93
2023-05-03T17:49:49.426Z,237.90
2023-05-03T17:52:17.794Z,257.67
2023-05-03T17:54:46.144Z,238.77
2023-05-03T17:57:14.610Z,218.70
2023-05-03T17:59:42.386Z,208.38
2023-05-03T18:02:13.701Z,208.40
2023-05-03T18:04:41.643Z,195.95
2023-05-03T18:07:09.760Z,213.23
2023-05-03T18:09:38.132Z,204.48
2023-05-03T18:12:06.499Z,199.00
2023-05-03T18:14:35.944Z,197.27
2023-05-03T18:17:03.998Z,197.70
2023-05-03T18:19:33.169Z,187.98
2023-05-03T18:22:01.605Z,191.77
2023-05-03T18:24:29.378Z,195.45
2023-05-03T18:26:58.707Z,168.40
2023-05-03T18:29:26.493Z,175.35
2023-05-03T18:31:54.982Z,152.43
2023-05-03T18:34:22.852Z,150.73
2023-05-03T18:36:52.329Z,146.52
2023-05-03T18:39:20.428Z,140.18
2023-05-03T18:41:48.099Z,153.05
2023-05-03T18:44:16.100Z,161.95
2023-05-03T18:46:44.324Z,151.05
2023-05-03T18:49:12.829Z,150.13
2023-05-03T18:51:40.964Z,143.82
2023-05-03T18:54:10.499Z,150.60
2023-05-03T18:56:38.234Z,146.82
2023-05-03T18:59:06.635Z,153.50
2023-05-03T19:01:34.570Z,153.57
2023-05-03T19:04:04.683Z,163.77
2023-05-03T19:06:32.544Z,168.65
2023-05-03T19:09:00.421Z,167.38
2023-05-03T19:11:29.493Z,186.25
2023-05-03T19:13:57.325Z,189.88
2023-05-03T19:16:25.080Z,194.32
2023-05-03T19:18:52.954Z,225.73
2023-05-03T19:21:21.378Z,228.82
2023-05-03T19:23:49.041Z,240.23
2023-05-03T19:26:17.093Z,247.93
2023-05-03T19:28:46.712Z,245.45
2023-05-03T19:31:14.577Z,251.40
2023-05-03T19:33:42.353Z,260.90
2023-05-03T19:36:13.786Z,275.20
2023-05-03T19:38:41.574Z,277.70
2023-05-03T19:41:12.239Z,268.63
2023-05-03T19:43:41.181Z,281.80
2023-05-03T19:46:10.554Z,278.77
2023-05-03T19:48:38.835Z,261.77
2023-05-03T19:51:06.758Z,243.55
2023-05-03T19:53:34.912Z,243.82
2023-05-03T19:56:03.853Z,253.00
2023-05-03T19:58:32.324Z,244.10
2023-05-03T20:01:00.472Z,243.73
2023-05-03T20:03:29.984Z,227.20
2023-05-03T20:05:59.011Z,227.10
2023-05-03T20:08:27.075Z,206.13
2023-05-03T20:10:56.510Z,207.15
2023-05-03T20:13:26.173Z,200.30
2023-05-03T20:15:54.308Z,216.35
2023-05-03T20:18:22.156Z,193.55
2023-05-03T20:20:51.514Z,185.07
2023-05-03T20:23:19.453Z,190.32
2023-05-03T20:25:47.336Z,184.38
2023-05-03T20:28:15.269Z,171.07
2023-05-03T20:30:43.006Z,184.23
2023-05-03T20:33:10.905Z,172.13
2023-05-03T20:35:38.946Z,169.82
2023-05-03T20:38:08.206Z,166.43
2023-05-03T20:40:35.897Z,166.93
2023-05-03T20:43:04.394Z,170.00
2023-05-03T20:45:32.830Z,171.75
2023-05-03T20:48:00.698Z,175.82
2023-05-03T20:50:28.317Z,165.95
2023-05-03T20:52:56.864Z,160.70
2023-05-03T20:55:25.922Z,163.18
2023-05-03T20:57:53.821Z,161.02
2023-05-03T21:00:22.372Z,171.85
2023-05-03T21:02:53.369Z,167.05
2023-05-03T21:05:22.212Z,160.43
2023-05-03T21:07:50.088Z,173.02
2023-05-03T21:10:18.265Z,163.27
2023-05-03T21:12:47.634Z,166.10
2023-05-03T21:15:15.928Z,165.55
2023-05-03T21:17:43.588Z,164.23
2023-05-03T21:20:12.231Z,166.20
2023-05-03T21:22:39.925Z,162.98
2023-05-03T21:25:08.877Z,167.13
2023-05-03T21:27:37.047Z,167.55
2023-05-03T21:30:07.687Z,157.27
2023-05-03T21:32:35.519Z,166.23
2023-05-03T21:35:03.664Z,174.10
2023-05-03T21:37:31.395Z,162.52
2023-05-03T21:40:02.523Z,163.68
2023-05-03T21:42:30.788Z,167.48
2023-05-03T21:44:59.314Z,173.02
2023-05-03T21:47:28.499Z,163.45
2023-05-03T21:49:56.519Z,178.30
2023-05-03T21:52:24.305Z,170.15
2023-05-03T21:54:53.452Z,185.98
2023-05-03T21:57:21.971Z,179.40
2023-05-03T21:59:50.253Z,186.52
2023-05-03T22:02:18.531Z,193.98
2023-05-03T22:04:48.675Z,187.75
2023-05-03T22:07:16.861Z,193.45
2023-05-03T22:09:46.959Z,179.90
2023-05-03T22:12:23.372Z,204.23
2023-05-03T22:14:52.358Z,190.45
2023-05-03T22:17:20.599Z,179.10
2023-05-03T22:19:50.464Z,178.02
2023-05-03T22:22:18.670Z,195.82
2023-05-03T22:24:46.390Z,188.73
2023-05-03T22:27:14.184Z,192.93
2023-05-03T22:29:42.738Z,193.23
2023-05-03T22:32:10.477Z,208.32
2023-05-03T22:34:38.604Z,197.63
2023-05-03T22:37:07.584Z,195.68
2023-05-03T22:39:35.703Z,194.38
2023-05-03T22:42:03.429Z,188.50
2023-05-03T22:44:33.730Z,182.05
2023-05-03T22:47:01.477Z,189.45
2023-05-03T22:49:29.490Z,186.15
2023-05-03T22:51:57.986Z,169.68
2023-05-03T22:54:27.086Z,167.60
2023-05-03T22:56:55.318Z,171.20
2023-05-03T22:59:22.962Z,177.98
2023-05-03T23:01:51.144Z,169.77
2023-05-03T23:04:18.840Z,177.88
2023-05-03T23:06:46.459Z,177.52
2023-05-03T23:09:15.349Z,177.65
2023-05-03T23:11:44.309Z,178.55
2023-05-03T23:14:12.398Z,176.98
2023-05-03T23:16:40.400Z,188.88
2023-05-03T23:19:08.186Z,170.77
2023-05-03T23:21:36.171Z,184.85
2023-05-03T23:24:03.831Z,175.32
2023-05-03T23:26:32.182Z,185.27
2023-05-03T23:29:02.218Z,186.43
2023-05-03T23:31:31.488Z,188.90
2023-05-03T23:34:00.783Z,180.55
2023-05-03T23:36:28.490Z,185.68
2023-05-03T23:38:56.791Z,177.55
2023-05-03T23:41:24.415Z,173.77
2023-05-03T23:43:52.300Z,172.85
2023-05-03T23:46:21.698Z,170.18
2023-05-03T23:48:49.431Z,182.20
2023-05-03T23:51:17.614Z,180.40
2023-05-03T23:53:45.197Z,182.55
2023-05-03T23:56:13.602Z,185.77
2023-05-03T23:58:41.352Z,167.93
